Hauptseite
METAR-TAF:

METAR-TAF

Flughäfen :

Bohrplattform

Euro, Niederlande

Breite: 51-59-52N, Länge: 3-16-30E, Höhe: 18 m

Beobachtung

Neuester Wetterbericht von vor 27 Minuten, um 07:25 UTC
Wind 17 kt aus Nord/Nordost
Temperatur 15°C
Luftfeuchtigkeit 72%
Luftdruck 1025 hPa
Sichtweite 10 km oder mehr

METAR: EHSA 180725Z AUTO 02017KT 9999 ///////// 15/10 Q1025 W15/H10

Zeit: 09:52 (07:52 UTC)


TAF: fehlend

Wetterbeobachtungen und Prognosen von mehr als 4000 Flughäfen (METAR und TAF Bericht).

Die verfügbaren Stationen werden durch gelbe und rote Markierungen auf der Karte dargestellt.

Führen Sie die Maus auf sie, um den Namen der Station zu sehen.

Darauf klicken, um die Beobachtung von Wetterbeobachtungen und Prognosen zu sehen.

Um die Karte zu ändern : klicken Sie auf den grünen Tasten mit einem schwarzen Kreuz Zum Vergrößern, auf den grünen Button mit einem Gedankenstrich zu verkleinern, oder auf die grünen Pfeile für benachbarte Karten.


METAR-TAF: